sensor_id;sensor_type;location;lat;lon;timestamp;P1;durP1;ratioP1;P2;durP2;ratioP2
62554;SDS011;48610;52.144;8.624;2023-10-13T00:02:31;57.00;;;26.88;;
62554;SDS011;48610;52.144;8.624;2023-10-13T00:05:33;55.50;;;26.77;;
62554;SDS011;48610;52.144;8.624;2023-10-13T00:08:34;54.20;;;26.17;;
62554;SDS011;48610;52.144;8.624;2023-10-13T00:11:36;54.08;;;26.13;;
62554;SDS011;48610;52.144;8.624;2023-10-13T00:14:40;56.25;;;27.38;;
62554;SDS011;48610;52.144;8.624;2023-10-13T00:17:41;57.20;;;27.30;;
62554;SDS011;48610;52.144;8.624;2023-10-13T00:20:42;53.42;;;25.25;;
62554;SDS011;48610;52.144;8.624;2023-10-13T00:23:49;60.15;;;28.85;;
62554;SDS011;48610;52.144;8.624;2023-10-13T00:26:52;52.13;;;25.95;;
62554;SDS011;48610;52.144;8.624;2023-10-13T00:29:54;57.40;;;26.67;;
62554;SDS011;48610;52.144;8.624;2023-10-13T00:33:15;56.15;;;26.77;;
62554;SDS011;48610;52.144;8.624;2023-10-13T00:36:20;55.00;;;25.58;;
62554;SDS011;48610;52.144;8.624;2023-10-13T00:39:21;52.58;;;26.27;;
62554;SDS011;48610;52.144;8.624;2023-10-13T00:42:22;51.95;;;25.67;;
62554;SDS011;48610;52.144;8.624;2023-10-13T00:45:53;53.03;;;25.33;;
62554;SDS011;48610;52.144;8.624;2023-10-13T00:48:55;53.42;;;25.10;;
62554;SDS011;48610;52.144;8.624;2023-10-13T00:51:56;54.28;;;26.42;;
62554;SDS011;48610;52.144;8.624;2023-10-13T00:54:58;55.67;;;25.73;;
62554;SDS011;48610;52.144;8.624;2023-10-13T00:58:00;54.42;;;26.13;;
62554;SDS011;48610;52.144;8.624;2023-10-13T01:01:03;50.92;;;26.65;;
62554;SDS011;48610;52.144;8.624;2023-10-13T01:04:21;56.42;;;26.88;;
62554;SDS011;48610;52.144;8.624;2023-10-13T01:07:28;51.35;;;25.40;;
62554;SDS011;48610;52.144;8.624;2023-10-13T01:10:29;59.65;;;27.00;;
62554;SDS011;48610;52.144;8.624;2023-10-13T01:13:32;55.47;;;27.38;;
62554;SDS011;48610;52.144;8.624;2023-10-13T01:16:39;44.67;;;24.30;;
62554;SDS011;48610;52.144;8.624;2023-10-13T01:19:45;53.72;;;24.63;;
62554;SDS011;48610;52.144;8.624;2023-10-13T01:22:49;44.25;;;22.52;;
62554;SDS011;48610;52.144;8.624;2023-10-13T01:25:55;45.97;;;22.33;;
62554;SDS011;48610;52.144;8.624;2023-10-13T01:28:57;42.75;;;21.65;;
62554;SDS011;48610;52.144;8.624;2023-10-13T01:31:58;41.10;;;21.88;;
62554;SDS011;48610;52.144;8.624;2023-10-13T01:34:58;47.38;;;23.42;;
62554;SDS011;48610;52.144;8.624;2023-10-13T01:38:05;37.72;;;21.05;;
62554;SDS011;48610;52.144;8.624;2023-10-13T01:41:06;39.05;;;20.85;;
62554;SDS011;48610;52.144;8.624;2023-10-13T01:44:09;36.95;;;19.52;;
62554;SDS011;48610;52.144;8.624;2023-10-13T01:47:14;44.50;;;20.15;;
62554;SDS011;48610;52.144;8.624;2023-10-13T01:50:16;35.72;;;20.38;;
62554;SDS011;48610;52.144;8.624;2023-10-13T01:53:30;38.97;;;19.65;;
62554;SDS011;48610;52.144;8.624;2023-10-13T01:56:30;38.17;;;19.23;;
62554;SDS011;48610;52.144;8.624;2023-10-13T01:59:31;43.75;;;19.55;;
62554;SDS011;48610;52.144;8.624;2023-10-13T02:02:32;38.13;;;19.58;;
62554;SDS011;48610;52.144;8.624;2023-10-13T02:05:32;33.90;;;18.83;;
62554;SDS011;48610;52.144;8.624;2023-10-13T02:08:36;37.70;;;18.92;;
62554;SDS011;48610;52.144;8.624;2023-10-13T02:11:41;34.30;;;18.23;;
62554;SDS011;48610;52.144;8.624;2023-10-13T02:14:43;30.25;;;17.45;;
62554;SDS011;48610;52.144;8.624;2023-10-13T02:17:44;34.22;;;19.25;;
62554;SDS011;48610;52.144;8.624;2023-10-13T02:20:45;39.08;;;18.35;;
62554;SDS011;48610;52.144;8.624;2023-10-13T02:23:46;39.63;;;19.08;;
62554;SDS011;48610;52.144;8.624;2023-10-13T02:26:59;33.88;;;17.65;;
62554;SDS011;48610;52.144;8.624;2023-10-13T02:30:05;35.45;;;16.95;;
62554;SDS011;48610;52.144;8.624;2023-10-13T02:33:07;28.13;;;16.13;;
62554;SDS011;48610;52.144;8.624;2023-10-13T02:36:10;33.60;;;16.48;;
62554;SDS011;48610;52.144;8.624;2023-10-13T02:39:20;33.15;;;16.88;;
62554;SDS011;48610;52.144;8.624;2023-10-13T02:42:25;30.40;;;16.20;;
62554;SDS011;48610;52.144;8.624;2023-10-13T02:45:26;35.22;;;16.15;;
62554;SDS011;48610;52.144;8.624;2023-10-13T02:48:27;37.55;;;16.38;;
62554;SDS011;48610;52.144;8.624;2023-10-13T02:51:40;32.45;;;15.82;;
62554;SDS011;48610;52.144;8.624;2023-10-13T02:54:42;38.70;;;16.63;;
62554;SDS011;48610;52.144;8.624;2023-10-13T02:57:47;35.67;;;16.23;;
62554;SDS011;48610;52.144;8.624;2023-10-13T03:00:48;40.67;;;17.25;;
62554;SDS011;48610;52.144;8.624;2023-10-13T03:03:49;35.70;;;16.55;;
62554;SDS011;48610;52.144;8.624;2023-10-13T03:07:01;30.40;;;16.23;;
62554;SDS011;48610;52.144;8.624;2023-10-13T03:10:03;37.50;;;16.00;;
62554;SDS011;48610;52.144;8.624;2023-10-13T03:13:10;26.10;;;14.73;;
62554;SDS011;48610;52.144;8.624;2023-10-13T03:16:12;27.65;;;15.95;;
62554;SDS011;48610;52.144;8.624;2023-10-13T03:19:16;28.40;;;15.93;;
62554;SDS011;48610;52.144;8.624;2023-10-13T03:22:19;33.30;;;17.02;;
62554;SDS011;48610;52.144;8.624;2023-10-13T03:25:30;29.20;;;15.60;;
62554;SDS011;48610;52.144;8.624;2023-10-13T03:28:37;28.90;;;15.38;;
62554;SDS011;48610;52.144;8.624;2023-10-13T03:31:38;35.88;;;15.32;;
62554;SDS011;48610;52.144;8.624;2023-10-13T03:34:39;28.75;;;15.90;;
62554;SDS011;48610;52.144;8.624;2023-10-13T03:37:49;32.55;;;16.65;;
62554;SDS011;48610;52.144;8.624;2023-10-13T03:40:53;28.98;;;15.45;;
62554;SDS011;48610;52.144;8.624;2023-10-13T03:44:06;32.60;;;15.45;;
62554;SDS011;48610;52.144;8.624;2023-10-13T03:47:09;29.13;;;15.60;;
62554;SDS011;48610;52.144;8.624;2023-10-13T03:50:18;36.40;;;15.20;;
62554;SDS011;48610;52.144;8.624;2023-10-13T03:53:30;34.22;;;15.85;;
62554;SDS011;48610;52.144;8.624;2023-10-13T03:56:34;28.50;;;15.05;;
62554;SDS011;48610;52.144;8.624;2023-10-13T03:59:38;31.85;;;15.05;;
62554;SDS011;48610;52.144;8.624;2023-10-13T04:02:40;32.88;;;15.23;;
62554;SDS011;48610;52.144;8.624;2023-10-13T04:05:46;32.33;;;15.60;;
62554;SDS011;48610;52.144;8.624;2023-10-13T04:09:01;25.00;;;14.82;;
62554;SDS011;48610;52.144;8.624;2023-10-13T04:12:20;32.45;;;15.10;;
62554;SDS011;48610;52.144;8.624;2023-10-13T04:15:42;33.47;;;16.58;;
62554;SDS011;48610;52.144;8.624;2023-10-13T04:19:02;26.50;;;14.27;;
62554;SDS011;48610;52.144;8.624;2023-10-13T04:22:03;26.40;;;14.45;;
62554;SDS011;48610;52.144;8.624;2023-10-13T04:25:18;29.63;;;13.65;;
62554;SDS011;48610;52.144;8.624;2023-10-13T04:28:35;26.08;;;14.48;;
62554;SDS011;48610;52.144;8.624;2023-10-13T04:31:37;34.47;;;13.93;;
62554;SDS011;48610;52.144;8.624;2023-10-13T04:34:56;24.33;;;12.93;;
62554;SDS011;48610;52.144;8.624;2023-10-13T04:38:17;24.02;;;13.93;;
62554;SDS011;48610;52.144;8.624;2023-10-13T04:41:19;27.80;;;13.82;;
62554;SDS011;48610;52.144;8.624;2023-10-13T04:44:23;25.02;;;13.10;;
62554;SDS011;48610;52.144;8.624;2023-10-13T04:47:43;29.25;;;12.93;;
62554;SDS011;48610;52.144;8.624;2023-10-13T04:51:00;22.05;;;13.70;;
62554;SDS011;48610;52.144;8.624;2023-10-13T04:54:41;29.77;;;14.65;;
62554;SDS011;48610;52.144;8.624;2023-10-13T04:57:49;25.23;;;13.18;;
62554;SDS011;48610;52.144;8.624;2023-10-13T05:00:54;23.48;;;13.10;;
62554;SDS011;48610;52.144;8.624;2023-10-13T05:04:17;25.25;;;13.40;;
62554;SDS011;48610;52.144;8.624;2023-10-13T05:07:36;33.15;;;15.15;;
62554;SDS011;48610;52.144;8.624;2023-10-13T05:10:56;21.40;;;12.90;;
62554;SDS011;48610;52.144;8.624;2023-10-13T05:14:34;27.15;;;14.07;;
62554;SDS011;48610;52.144;8.624;2023-10-13T05:17:54;24.60;;;14.32;;
62554;SDS011;48610;52.144;8.624;2023-10-13T05:21:13;25.95;;;14.13;;
62554;SDS011;48610;52.144;8.624;2023-10-13T05:24:32;23.40;;;12.98;;
62554;SDS011;48610;52.144;8.624;2023-10-13T05:27:51;30.38;;;13.68;;
62554;SDS011;48610;52.144;8.624;2023-10-13T05:31:11;23.48;;;12.60;;
62554;SDS011;48610;52.144;8.624;2023-10-13T05:34:30;22.70;;;12.48;;
62554;SDS011;48610;52.144;8.624;2023-10-13T05:37:49;21.48;;;10.23;;
62554;SDS011;48610;52.144;8.624;2023-10-13T05:41:08;22.33;;;10.40;;
62554;SDS011;48610;52.144;8.624;2023-10-13T05:44:28;14.25;;;8.57;;
62554;SDS011;48610;52.144;8.624;2023-10-13T05:47:37;15.95;;;8.68;;
62554;SDS011;48610;52.144;8.624;2023-10-13T05:50:43;17.00;;;8.27;;
62554;SDS011;48610;52.144;8.624;2023-10-13T05:54:10;13.15;;;8.07;;
62554;SDS011;48610;52.144;8.624;2023-10-13T05:57:14;13.35;;;8.52;;
62554;SDS011;48610;52.144;8.624;2023-10-13T06:00:37;14.52;;;7.95;;
62554;SDS011;48610;52.144;8.624;2023-10-13T06:03:57;13.70;;;8.45;;
62554;SDS011;48610;52.144;8.624;2023-10-13T06:07:16;14.40;;;7.63;;
62554;SDS011;48610;52.144;8.624;2023-10-13T06:10:36;14.98;;;8.15;;
62554;SDS011;48610;52.144;8.624;2023-10-13T06:13:55;19.80;;;7.93;;
62554;SDS011;48610;52.144;8.624;2023-10-13T06:17:14;17.95;;;8.40;;
62554;SDS011;48610;52.144;8.624;2023-10-13T06:20:38;13.43;;;8.38;;
62554;SDS011;48610;52.144;8.624;2023-10-13T06:23:57;18.27;;;9.88;;
62554;SDS011;48610;52.144;8.624;2023-10-13T06:27:16;18.08;;;10.30;;
62554;SDS011;48610;52.144;8.624;2023-10-13T06:30:36;22.20;;;12.23;;
62554;SDS011;48610;52.144;8.624;2023-10-13T06:33:36;25.05;;;10.20;;
62554;SDS011;48610;52.144;8.624;2023-10-13T06:36:44;17.17;;;10.77;;
62554;SDS011;48610;52.144;8.624;2023-10-13T06:39:46;18.00;;;9.98;;
62554;SDS011;48610;52.144;8.624;2023-10-13T06:42:48;24.95;;;9.77;;
62554;SDS011;48610;52.144;8.624;2023-10-13T06:45:49;20.25;;;9.63;;
62554;SDS011;48610;52.144;8.624;2023-10-13T06:49:02;18.52;;;9.48;;
62554;SDS011;48610;52.144;8.624;2023-10-13T06:52:02;18.42;;;9.52;;
62554;SDS011;48610;52.144;8.624;2023-10-13T06:55:06;23.48;;;9.50;;
62554;SDS011;48610;52.144;8.624;2023-10-13T06:58:07;21.73;;;9.15;;
62554;SDS011;48610;52.144;8.624;2023-10-13T07:01:13;23.05;;;9.35;;
62554;SDS011;48610;52.144;8.624;2023-10-13T07:04:21;14.57;;;7.28;;
62554;SDS011;48610;52.144;8.624;2023-10-13T07:07:22;12.20;;;7.72;;
62554;SDS011;48610;52.144;8.624;2023-10-13T07:10:23;15.32;;;7.85;;
62554;SDS011;48610;52.144;8.624;2023-10-13T07:13:30;16.95;;;7.40;;
62554;SDS011;48610;52.144;8.624;2023-10-13T07:16:31;13.60;;;7.55;;
62554;SDS011;48610;52.144;8.624;2023-10-13T07:19:35;17.92;;;7.50;;
62554;SDS011;48610;52.144;8.624;2023-10-13T07:22:45;18.48;;;7.65;;
62554;SDS011;48610;52.144;8.624;2023-10-13T07:26:06;14.27;;;7.03;;
62554;SDS011;48610;52.144;8.624;2023-10-13T07:29:11;16.95;;;7.55;;
62554;SDS011;48610;52.144;8.624;2023-10-13T07:32:13;16.85;;;7.20;;
62554;SDS011;48610;52.144;8.624;2023-10-13T07:35:24;15.20;;;7.53;;
62554;SDS011;48610;52.144;8.624;2023-10-13T07:38:25;14.55;;;7.57;;
62554;SDS011;48610;52.144;8.624;2023-10-13T07:41:30;18.92;;;8.02;;
62554;SDS011;48610;52.144;8.624;2023-10-13T07:44:32;12.77;;;7.35;;
62554;SDS011;48610;52.144;8.624;2023-10-13T07:47:33;15.00;;;7.93;;
62554;SDS011;48610;52.144;8.624;2023-10-13T07:50:34;16.48;;;7.25;;
62554;SDS011;48610;52.144;8.624;2023-10-13T07:53:35;15.10;;;7.18;;
62554;SDS011;48610;52.144;8.624;2023-10-13T07:56:39;10.35;;;6.78;;
62554;SDS011;48610;52.144;8.624;2023-10-13T07:59:40;10.05;;;6.45;;
62554;SDS011;48610;52.144;8.624;2023-10-13T08:02:48;18.77;;;6.88;;
62554;SDS011;48610;52.144;8.624;2023-10-13T08:09:23;15.55;;;6.50;;
62554;SDS011;48610;52.144;8.624;2023-10-13T08:12:40;10.70;;;6.25;;
62554;SDS011;48610;52.144;8.624;2023-10-13T08:15:44;14.15;;;5.97;;
62554;SDS011;48610;52.144;8.624;2023-10-13T08:18:50;11.25;;;5.65;;
62554;SDS011;48610;52.144;8.624;2023-10-13T08:21:53;15.80;;;6.60;;
62554;SDS011;48610;52.144;8.624;2023-10-13T08:24:59;12.52;;;5.78;;
62554;SDS011;48610;52.144;8.624;2023-10-13T08:28:20;13.30;;;6.38;;
62554;SDS011;48610;52.144;8.624;2023-10-13T08:31:36;13.07;;;6.15;;
62554;SDS011;48610;52.144;8.624;2023-10-13T08:34:41;10.00;;;5.13;;
62554;SDS011;48610;52.144;8.624;2023-10-13T08:37:44;15.93;;;6.20;;
62554;SDS011;48610;52.144;8.624;2023-10-13T08:41:08;17.80;;;5.88;;
62554;SDS011;48610;52.144;8.624;2023-10-13T08:44:15;11.50;;;5.82;;
62554;SDS011;48610;52.144;8.624;2023-10-13T08:47:32;14.07;;;6.55;;
62554;SDS011;48610;52.144;8.624;2023-10-13T08:53:52;12.02;;;5.65;;
62554;SDS011;48610;52.144;8.624;2023-10-13T08:56:58;11.32;;;5.65;;
62554;SDS011;48610;52.144;8.624;2023-10-13T09:00:33;13.75;;;5.65;;
62554;SDS011;48610;52.144;8.624;2023-10-13T09:03:54;10.95;;;5.50;;
62554;SDS011;48610;52.144;8.624;2023-10-13T09:07:16;12.60;;;5.57;;
62554;SDS011;48610;52.144;8.624;2023-10-13T09:10:22;14.60;;;5.50;;
62554;SDS011;48610;52.144;8.624;2023-10-13T09:13:44;10.45;;;5.38;;
62554;SDS011;48610;52.144;8.624;2023-10-13T09:16:49;13.02;;;5.07;;
62554;SDS011;48610;52.144;8.624;2023-10-13T09:20:08;11.23;;;5.22;;
62554;SDS011;48610;52.144;8.624;2023-10-13T09:23:32;9.95;;;5.53;;
62554;SDS011;48610;52.144;8.624;2023-10-13T09:26:45;15.52;;;5.25;;
62554;SDS011;48610;52.144;8.624;2023-10-13T09:30:02;12.32;;;5.95;;
62554;SDS011;48610;52.144;8.624;2023-10-13T09:33:22;16.25;;;4.85;;
62554;SDS011;48610;52.144;8.624;2023-10-13T09:36:35;8.13;;;5.20;;
62554;SDS011;48610;52.144;8.624;2023-10-13T09:39:36;11.05;;;4.78;;
62554;SDS011;48610;52.144;8.624;2023-10-13T09:42:41;13.45;;;4.35;;
62554;SDS011;48610;52.144;8.624;2023-10-13T09:45:42;15.88;;;4.75;;
62554;SDS011;48610;52.144;8.624;2023-10-13T09:49:12;16.83;;;5.90;;
62554;SDS011;48610;52.144;8.624;2023-10-13T09:52:33;13.05;;;5.40;;
62554;SDS011;48610;52.144;8.624;2023-10-13T09:55:41;11.38;;;5.25;;
62554;SDS011;48610;52.144;8.624;2023-10-13T09:58:53;11.07;;;4.95;;
62554;SDS011;48610;52.144;8.624;2023-10-13T10:02:00;14.95;;;5.50;;
62554;SDS011;48610;52.144;8.624;2023-10-13T10:05:08;15.15;;;5.65;;
62554;SDS011;48610;52.144;8.624;2023-10-13T10:08:24;14.98;;;5.40;;
62554;SDS011;48610;52.144;8.624;2023-10-13T10:11:44;20.23;;;5.90;;
62554;SDS011;48610;52.144;8.624;2023-10-13T10:15:05;14.45;;;5.03;;
62554;SDS011;48610;52.144;8.624;2023-10-13T10:18:20;15.02;;;4.95;;
62554;SDS011;48610;52.144;8.624;2023-10-13T10:21:35;15.20;;;5.43;;
62554;SDS011;48610;52.144;8.624;2023-10-13T10:24:41;20.08;;;5.53;;
62554;SDS011;48610;52.144;8.624;2023-10-13T10:28:13;12.38;;;5.28;;
62554;SDS011;48610;52.144;8.624;2023-10-13T10:31:20;18.38;;;5.05;;
62554;SDS011;48610;52.144;8.624;2023-10-13T10:34:41;21.73;;;5.82;;
62554;SDS011;48610;52.144;8.624;2023-10-13T10:37:50;19.63;;;6.00;;
62554;SDS011;48610;52.144;8.624;2023-10-13T10:45:08;15.93;;;5.05;;
62554;SDS011;48610;52.144;8.624;2023-10-13T10:48:12;19.40;;;5.65;;
62554;SDS011;48610;52.144;8.624;2023-10-13T10:51:21;18.00;;;5.13;;
62554;SDS011;48610;52.144;8.624;2023-10-13T10:54:23;13.80;;;5.22;;
62554;SDS011;48610;52.144;8.624;2023-10-13T10:57:31;25.23;;;5.75;;
62554;SDS011;48610;52.144;8.624;2023-10-13T11:00:43;24.23;;;6.35;;
62554;SDS011;48610;52.144;8.624;2023-10-13T11:04:03;15.82;;;4.90;;
62554;SDS011;48610;52.144;8.624;2023-10-13T11:07:36;18.90;;;5.22;;
62554;SDS011;48610;52.144;8.624;2023-10-13T11:10:46;20.40;;;5.45;;
62554;SDS011;48610;52.144;8.624;2023-10-13T11:13:47;21.63;;;5.78;;
62554;SDS011;48610;52.144;8.624;2023-10-13T11:16:52;15.07;;;5.25;;
62554;SDS011;48610;52.144;8.624;2023-10-13T11:19:54;28.88;;;5.82;;
62554;SDS011;48610;52.144;8.624;2023-10-13T11:22:55;19.20;;;4.95;;
62554;SDS011;48610;52.144;8.624;2023-10-13T11:25:59;16.52;;;4.78;;
62554;SDS011;48610;52.144;8.624;2023-10-13T11:29:05;22.52;;;5.35;;
62554;SDS011;48610;52.144;8.624;2023-10-13T11:32:10;16.85;;;5.70;;
62554;SDS011;48610;52.144;8.624;2023-10-13T11:35:19;18.00;;;5.30;;
62554;SDS011;48610;52.144;8.624;2023-10-13T11:41:40;18.00;;;5.28;;
62554;SDS011;48610;52.144;8.624;2023-10-13T11:44:50;18.48;;;4.80;;
62554;SDS011;48610;52.144;8.624;2023-10-13T11:48:11;22.65;;;5.53;;
62554;SDS011;48610;52.144;8.624;2023-10-13T11:51:14;24.25;;;5.28;;
62554;SDS011;48610;52.144;8.624;2023-10-13T11:54:24;19.48;;;5.55;;
62554;SDS011;48610;52.144;8.624;2023-10-13T11:57:24;19.15;;;5.25;;
62554;SDS011;48610;52.144;8.624;2023-10-13T12:00:26;19.38;;;5.10;;
62554;SDS011;48610;52.144;8.624;2023-10-13T12:03:48;14.60;;;4.75;;
62554;SDS011;48610;52.144;8.624;2023-10-13T12:07:08;18.52;;;5.57;;
62554;SDS011;48610;52.144;8.624;2023-10-13T12:10:17;16.75;;;5.25;;
62554;SDS011;48610;52.144;8.624;2023-10-13T12:13:33;23.92;;;6.07;;
62554;SDS011;48610;52.144;8.624;2023-10-13T12:16:34;17.63;;;5.72;;
62554;SDS011;48610;52.144;8.624;2023-10-13T12:19:34;17.67;;;5.00;;
62554;SDS011;48610;52.144;8.624;2023-10-13T12:22:38;16.25;;;5.45;;
62554;SDS011;48610;52.144;8.624;2023-10-13T12:25:39;26.58;;;5.38;;
62554;SDS011;48610;52.144;8.624;2023-10-13T12:28:58;12.57;;;4.63;;
62554;SDS011;48610;52.144;8.624;2023-10-13T12:32:07;21.92;;;4.93;;
62554;SDS011;48610;52.144;8.624;2023-10-13T12:35:16;19.25;;;5.43;;
62554;SDS011;48610;52.144;8.624;2023-10-13T12:38:27;14.25;;;5.28;;
62554;SDS011;48610;52.144;8.624;2023-10-13T12:41:37;24.10;;;5.25;;
62554;SDS011;48610;52.144;8.624;2023-10-13T12:45:04;15.02;;;5.32;;
62554;SDS011;48610;52.144;8.624;2023-10-13T12:48:31;12.98;;;5.30;;
62554;SDS011;48610;52.144;8.624;2023-10-13T12:52:27;14.95;;;5.60;;
62554;SDS011;48610;52.144;8.624;2023-10-13T12:55:34;17.40;;;5.35;;
62554;SDS011;48610;52.144;8.624;2023-10-13T12:58:46;12.48;;;4.50;;
62554;SDS011;48610;52.144;8.624;2023-10-13T13:05:00;19.55;;;5.03;;
62554;SDS011;48610;52.144;8.624;2023-10-13T13:08:14;22.25;;;5.10;;
62554;SDS011;48610;52.144;8.624;2023-10-13T13:11:44;29.90;;;5.78;;
62554;SDS011;48610;52.144;8.624;2023-10-13T13:14:58;25.58;;;6.80;;
62554;SDS011;48610;52.144;8.624;2023-10-13T13:22:08;16.95;;;5.50;;
62554;SDS011;48610;52.144;8.624;2023-10-13T13:25:14;24.75;;;5.53;;
62554;SDS011;48610;52.144;8.624;2023-10-13T13:32:44;15.65;;;4.55;;
62554;SDS011;48610;52.144;8.624;2023-10-13T13:35:55;23.52;;;5.45;;
62554;SDS011;48610;52.144;8.624;2023-10-13T13:43:06;26.70;;;5.40;;
62554;SDS011;48610;52.144;8.624;2023-10-13T13:46:59;17.40;;;4.60;;
62554;SDS011;48610;52.144;8.624;2023-10-13T13:53:42;15.32;;;5.47;;
62554;SDS011;48610;52.144;8.624;2023-10-13T13:56:48;24.58;;;5.15;;
62554;SDS011;48610;52.144;8.624;2023-10-13T13:59:49;18.70;;;6.07;;
62554;SDS011;48610;52.144;8.624;2023-10-13T14:02:52;18.90;;;5.63;;
62554;SDS011;48610;52.144;8.624;2023-10-13T14:05:52;22.25;;;5.10;;
62554;SDS011;48610;52.144;8.624;2023-10-13T14:08:56;19.58;;;5.28;;
62554;SDS011;48610;52.144;8.624;2023-10-13T14:12:24;12.43;;;5.05;;
62554;SDS011;48610;52.144;8.624;2023-10-13T14:15:57;15.15;;;5.40;;
62554;SDS011;48610;52.144;8.624;2023-10-13T14:18:58;21.55;;;5.47;;
62554;SDS011;48610;52.144;8.624;2023-10-13T14:22:01;15.32;;;5.40;;
62554;SDS011;48610;52.144;8.624;2023-10-13T14:25:08;12.43;;;5.20;;
62554;SDS011;48610;52.144;8.624;2023-10-13T14:28:14;15.15;;;5.55;;
62554;SDS011;48610;52.144;8.624;2023-10-13T14:31:18;23.63;;;5.53;;
62554;SDS011;48610;52.144;8.624;2023-10-13T14:34:19;20.70;;;5.60;;
62554;SDS011;48610;52.144;8.624;2023-10-13T14:37:22;13.10;;;5.15;;
62554;SDS011;48610;52.144;8.624;2023-10-13T14:40:26;15.38;;;5.55;;
62554;SDS011;48610;52.144;8.624;2023-10-13T14:43:27;20.80;;;5.63;;
62554;SDS011;48610;52.144;8.624;2023-10-13T14:46:28;21.17;;;5.03;;
62554;SDS011;48610;52.144;8.624;2023-10-13T14:49:28;18.83;;;5.70;;
62554;SDS011;48610;52.144;8.624;2023-10-13T14:52:29;20.55;;;5.10;;
62554;SDS011;48610;52.144;8.624;2023-10-13T14:55:33;21.30;;;5.17;;
62554;SDS011;48610;52.144;8.624;2023-10-13T15:01:45;15.02;;;5.28;;
62554;SDS011;48610;52.144;8.624;2023-10-13T15:04:47;14.82;;;5.70;;
62554;SDS011;48610;52.144;8.624;2023-10-13T15:07:50;19.30;;;5.17;;
62554;SDS011;48610;52.144;8.624;2023-10-13T15:10:51;16.15;;;4.72;;
62554;SDS011;48610;52.144;8.624;2023-10-13T15:13:55;19.80;;;5.13;;
62554;SDS011;48610;52.144;8.624;2023-10-13T15:16:56;27.80;;;5.28;;
62554;SDS011;48610;52.144;8.624;2023-10-13T15:20:00;17.42;;;5.38;;
62554;SDS011;48610;52.144;8.624;2023-10-13T15:23:01;24.13;;;5.30;;
62554;SDS011;48610;52.144;8.624;2023-10-13T15:26:05;28.52;;;7.57;;
62554;SDS011;48610;52.144;8.624;2023-10-13T15:29:09;71.70;;;29.27;;
62554;SDS011;48610;52.144;8.624;2023-10-13T15:32:12;35.38;;;13.80;;
62554;SDS011;48610;52.144;8.624;2023-10-13T15:35:16;29.95;;;11.57;;
62554;SDS011;48610;52.144;8.624;2023-10-13T15:38:17;21.95;;;5.60;;
62554;SDS011;48610;52.144;8.624;2023-10-13T15:41:24;25.83;;;6.82;;
62554;SDS011;48610;52.144;8.624;2023-10-13T15:44:26;56.53;;;23.45;;
62554;SDS011;48610;52.144;8.624;2023-10-13T15:47:29;28.50;;;6.30;;
62554;SDS011;48610;52.144;8.624;2023-10-13T15:50:37;18.90;;;5.30;;
62554;SDS011;48610;52.144;8.624;2023-10-13T15:53:41;25.40;;;5.38;;
62554;SDS011;48610;52.144;8.624;2023-10-13T15:56:45;15.55;;;5.38;;
62554;SDS011;48610;52.144;8.624;2023-10-13T15:59:46;16.90;;;4.65;;
62554;SDS011;48610;52.144;8.624;2023-10-13T16:02:47;20.10;;;5.07;;
62554;SDS011;48610;52.144;8.624;2023-10-13T16:05:50;18.38;;;5.25;;
62554;SDS011;48610;52.144;8.624;2023-10-13T16:08:51;16.92;;;5.18;;
62554;SDS011;48610;52.144;8.624;2023-10-13T16:11:53;19.25;;;5.18;;
62554;SDS011;48610;52.144;8.624;2023-10-13T16:14:54;27.10;;;5.50;;
62554;SDS011;48610;52.144;8.624;2023-10-13T16:17:55;28.92;;;5.25;;
62554;SDS011;48610;52.144;8.624;2023-10-13T16:20:55;21.38;;;6.00;;
62554;SDS011;48610;52.144;8.624;2023-10-13T16:23:56;22.77;;;5.65;;
62554;SDS011;48610;52.144;8.624;2023-10-13T16:26:57;21.35;;;5.00;;
62554;SDS011;48610;52.144;8.624;2023-10-13T16:29:59;23.55;;;4.88;;
62554;SDS011;48610;52.144;8.624;2023-10-13T16:32:59;18.17;;;4.82;;
62554;SDS011;48610;52.144;8.624;2023-10-13T16:36:00;14.18;;;5.20;;
62554;SDS011;48610;52.144;8.624;2023-10-13T16:39:00;21.35;;;5.20;;
62554;SDS011;48610;52.144;8.624;2023-10-13T16:42:01;24.42;;;4.53;;
62554;SDS011;48610;52.144;8.624;2023-10-13T16:45:07;14.23;;;5.43;;
62554;SDS011;48610;52.144;8.624;2023-10-13T16:48:14;18.58;;;5.13;;
62554;SDS011;48610;52.144;8.624;2023-10-13T16:51:18;20.88;;;5.65;;
62554;SDS011;48610;52.144;8.624;2023-10-13T16:54:19;15.60;;;4.85;;
62554;SDS011;48610;52.144;8.624;2023-10-13T16:57:21;20.85;;;4.72;;
62554;SDS011;48610;52.144;8.624;2023-10-13T17:00:21;20.13;;;5.10;;
62554;SDS011;48610;52.144;8.624;2023-10-13T17:03:28;18.05;;;5.45;;
62554;SDS011;48610;52.144;8.624;2023-10-13T17:06:32;15.20;;;5.25;;
62554;SDS011;48610;52.144;8.624;2023-10-13T17:09:33;13.40;;;4.68;;
62554;SDS011;48610;52.144;8.624;2023-10-13T17:12:34;16.73;;;4.80;;
62554;SDS011;48610;52.144;8.624;2023-10-13T17:15:35;14.65;;;4.57;;
62554;SDS011;48610;52.144;8.624;2023-10-13T17:18:36;17.30;;;5.10;;
62554;SDS011;48610;52.144;8.624;2023-10-13T17:21:37;19.75;;;4.75;;
62554;SDS011;48610;52.144;8.624;2023-10-13T17:24:37;15.48;;;5.35;;
62554;SDS011;48610;52.144;8.624;2023-10-13T17:27:41;19.80;;;5.07;;
62554;SDS011;48610;52.144;8.624;2023-10-13T17:30:42;16.40;;;4.55;;
62554;SDS011;48610;52.144;8.624;2023-10-13T17:33:45;17.75;;;4.82;;
62554;SDS011;48610;52.144;8.624;2023-10-13T17:36:48;13.55;;;4.80;;
62554;SDS011;48610;52.144;8.624;2023-10-13T17:39:49;13.95;;;4.60;;
62554;SDS011;48610;52.144;8.624;2023-10-13T17:42:49;14.88;;;4.60;;
62554;SDS011;48610;52.144;8.624;2023-10-13T17:45:50;15.57;;;4.90;;
62554;SDS011;48610;52.144;8.624;2023-10-13T17:48:50;14.25;;;4.88;;
62554;SDS011;48610;52.144;8.624;2023-10-13T17:51:55;19.83;;;5.13;;
62554;SDS011;48610;52.144;8.624;2023-10-13T17:54:56;24.15;;;5.72;;
62554;SDS011;48610;52.144;8.624;2023-10-13T17:57:56;15.20;;;5.05;;
62554;SDS011;48610;52.144;8.624;2023-10-13T18:01:04;13.98;;;4.97;;
62554;SDS011;48610;52.144;8.624;2023-10-13T18:04:06;16.10;;;4.70;;
62554;SDS011;48610;52.144;8.624;2023-10-13T18:07:09;15.00;;;4.97;;
62554;SDS011;48610;52.144;8.624;2023-10-13T18:10:11;17.30;;;4.78;;
62554;SDS011;48610;52.144;8.624;2023-10-13T18:13:14;14.73;;;4.80;;
62554;SDS011;48610;52.144;8.624;2023-10-13T18:16:16;17.13;;;5.78;;
62554;SDS011;48610;52.144;8.624;2023-10-13T18:19:17;20.67;;;5.00;;
62554;SDS011;48610;52.144;8.624;2023-10-13T18:22:20;30.05;;;5.35;;
62554;SDS011;48610;52.144;8.624;2023-10-13T18:25:21;13.30;;;5.70;;
62554;SDS011;48610;52.144;8.624;2023-10-13T18:28:24;14.82;;;4.72;;
62554;SDS011;48610;52.144;8.624;2023-10-13T18:31:24;18.85;;;5.20;;
62554;SDS011;48610;52.144;8.624;2023-10-13T18:34:28;16.35;;;5.93;;
62554;SDS011;48610;52.144;8.624;2023-10-13T18:37:28;22.05;;;5.57;;
62554;SDS011;48610;52.144;8.624;2023-10-13T18:40:30;14.55;;;5.22;;
62554;SDS011;48610;52.144;8.624;2023-10-13T18:43:36;16.98;;;4.95;;
62554;SDS011;48610;52.144;8.624;2023-10-13T18:46:39;13.88;;;4.95;;
62554;SDS011;48610;52.144;8.624;2023-10-13T18:49:40;21.17;;;5.50;;
62554;SDS011;48610;52.144;8.624;2023-10-13T18:52:41;14.20;;;5.38;;
62554;SDS011;48610;52.144;8.624;2023-10-13T18:55:42;14.07;;;5.30;;
62554;SDS011;48610;52.144;8.624;2023-10-13T18:58:43;17.33;;;4.70;;
62554;SDS011;48610;52.144;8.624;2023-10-13T19:01:48;19.30;;;4.95;;
62554;SDS011;48610;52.144;8.624;2023-10-13T19:04:49;14.95;;;5.20;;
62554;SDS011;48610;52.144;8.624;2023-10-13T19:07:49;15.32;;;5.22;;